York, North Dakota
Current Conditions -  °F | °C
As of 4:35 PM on Monday 22 Dec 2014 (Local Time) from K9D7 Reporting Station
Haze Haze  
Wind Chill: 24°   Ceiling: 400
Heat Index: 32°   Visibility: 3mi
Dew Point: 32°   Wind: 10mph
Humidity: 100%   Direction: 30°NNE
Pressure: 29.63"   Gusts: 17mph
Location:  48.31°N, 99.57°W
Report Text: K9D7 222235Z AUTO 03009G15KT 3SM BR OVC004 00/00 A2963 RMK AO2 VSBY 2 1/2V3
Loading
Personal Weather Stations






























Interactive Weather Map New forecast layout! Learn more

10-Day Weather Forecast

Advertisements
Track Severe Weather on mobile